Time;durP1;ratioP1;P1;durP2;ratioP2;P2;SDS_P1;SDS_P2;PMS_P1;PMS_P2;Temp;Humidity;BMP_temperature;BMP_pressure;BME280_temperature;BME280_humidity;BME280_pressure;Samples;Min_cycle;Max_cycle;Signal;HPM_P1;HPM_P2
2022/06/09 00:00:39;;;;;;;4.10;2.00;;;;;;;14.20;100.00;100010.81;108023;1281;62959;-82
2022/06/09 00:03:13;;;;;;;5.20;1.90;;;;;;;14.20;100.00;100013.35;108149;1279;61035;-82
2022/06/09 00:05:41;;;;;;;5.50;1.90;;;;;;;14.20;100.00;100012.44;108252;1277;73145;-82
2022/06/09 00:08:09;;;;;;;2.50;1.60;;;;;;;14.19;100.00;100013.88;108015;1280;71352;-82
2022/06/09 00:10:39;;;;;;;3.50;1.10;;;;;;;14.19;100.00;100009.48;108049;1277;74144;-82
2022/06/09 00:13:06;;;;;;;4.30;1.80;;;;;;;14.20;100.00;100011.00;108091;1277;63499;-82
2022/06/09 00:15:34;;;;;;;4.80;1.60;;;;;;;14.19;100.00;100006.77;108038;1277;59688;-82
2022/06/09 00:18:01;;;;;;;2.90;1.60;;;;;;;14.20;100.00;100010.31;108054;1278;74287;-82
2022/06/09 00:20:28;;;;;;;3.70;1.40;;;;;;;14.19;100.00;100009.20;107946;1279;71420;-82
2022/06/09 00:22:55;;;;;;;20.90;3.60;;;;;;;14.18;100.00;100010.90;107986;1277;73717;-83
2022/06/09 00:25:22;;;;;;;3.40;1.50;;;;;;;14.17;100.00;100010.00;107969;1277;62075;-83
2022/06/09 00:27:49;;;;;;;4.10;1.50;;;;;;;14.16;100.00;100011.45;107800;1279;61631;-83
2022/06/09 00:30:17;;;;;;;4.10;1.70;;;;;;;14.13;100.00;100004.48;107780;1277;75190;-83
2022/06/09 00:32:45;;;;;;;3.70;1.80;;;;;;;14.11;100.00;100010.54;107898;1278;72400;-83
2022/06/09 00:35:12;;;;;;;3.70;1.60;;;;;;;14.08;100.00;100009.86;107810;1280;73969;-83
2022/06/09 00:37:39;;;;;;;3.70;1.60;;;;;;;14.05;100.00;100006.34;107881;1278;63306;-82
2022/06/09 00:40:09;;;;;;;2.20;1.40;;;;;;;14.03;100.00;100019.82;107701;1281;61170;-82
2022/06/09 00:42:36;;;;;;;5.80;1.50;;;;;;;13.99;100.00;100025.25;107875;1278;75501;-82
2022/06/09 00:45:30;;;;;;;3.50;1.40;;;;;;;13.97;100.00;100026.91;107843;1279;71291;-82
2022/06/09 00:48:23;;;;;;;1.80;1.20;;;;;;;13.92;100.00;100030.05;107999;1277;73892;-82
2022/06/09 00:50:57;;;;;;;3.60;1.80;;;;;;;13.86;100.00;100025.77;107710;1277;61062;-83
2022/06/09 00:53:29;;;;;;;5.40;2.10;;;;;;;13.83;100.00;100024.15;107921;1277;60327;-83
2022/06/09 00:55:58;;;;;;;4.00;1.70;;;;;;;13.80;100.00;100027.20;107637;1279;74209;-82
2022/06/09 00:58:28;;;;;;;2.20;1.60;;;;;;;13.79;100.00;100027.36;107834;1279;71896;-83
2022/06/09 01:01:01;;;;;;;2.10;1.50;;;;;;;13.78;100.00;100024.75;107933;1277;74042;-83
2022/06/09 01:03:40;;;;;;;4.30;2.20;;;;;;;13.74;100.00;100023.36;107694;1278;62364;-82
2022/06/09 01:06:15;;;;;;;3.50;2.30;;;;;;;13.73;100.00;100025.25;107906;1277;60958;-82
2022/06/09 01:08:54;;;;;;;5.10;1.60;;;;;;;13.71;100.00;100025.27;107891;1277;74445;-82
2022/06/09 01:11:22;;;;;;;5.90;2.10;;;;;;;13.69;100.00;100026.64;107914;1277;71756;-82
2022/06/09 01:13:49;;;;;;;3.80;2.10;;;;;;;13.67;100.00;100027.73;107707;1277;72260;-82
2022/06/09 01:16:45;;;;;;;3.80;1.90;;;;;;;13.66;100.00;100030.70;107897;1277;63109;-82
2022/06/09 01:19:52;;;;;;;5.30;2.50;;;;;;;13.65;100.00;100032.35;107703;1280;60991;-82
2022/06/09 01:22:47;;;;;;;2.70;2.00;;;;;;;13.65;100.00;100031.48;107963;1277;74326;-82
2022/06/09 01:25:26;;;;;;;2.80;1.90;;;;;;;13.64;100.00;100033.34;107949;1277;71660;-83
2022/06/09 01:28:25;;;;;;;4.20;2.40;;;;;;;13.64;100.00;100031.52;107787;1277;72887;-82
2022/06/09 01:30:59;;;;;;;5.50;2.30;;;;;;;13.64;100.00;100033.91;107773;1276;61810;-83
2022/06/09 01:33:37;;;;;;;4.60;2.60;;;;;;;13.65;100.00;100035.70;107923;1279;61602;-83
2022/06/09 01:36:19;;;;;;;5.10;2.30;;;;;;;13.65;100.00;100035.52;107859;1279;74207;-83
2022/06/09 01:38:50;;;;;;;2.80;2.10;;;;;;;13.65;100.00;100036.90;107760;1277;73308;-83
2022/06/09 01:41:17;;;;;;;4.00;2.90;;;;;;;13.65;100.00;100036.57;107847;1277;72700;-82
2022/06/09 01:43:46;;;;;;;6.30;4.00;;;;;;;13.65;100.00;100039.65;107538;1279;63358;-82
2022/06/09 01:46:22;;;;;;;5.20;3.50;;;;;;;13.64;100.00;100035.63;107931;1277;61685;-82
2022/06/09 01:48:53;;;;;;;5.50;3.20;;;;;;;13.63;100.00;100034.48;107743;1278;75210;-82
2022/06/09 01:51:23;;;;;;;6.50;3.50;;;;;;;13.63;100.00;100033.30;107807;1277;71389;-82
2022/06/09 01:53:54;;;;;;;4.90;3.30;;;;;;;13.63;100.00;100037.89;107858;1277;73839;-83
2022/06/09 01:56:30;;;;;;;5.20;3.60;;;;;;;13.63;100.00;100041.08;108045;1277;62072;-82
2022/06/09 01:59:06;;;;;;;5.70;3.80;;;;;;;13.62;100.00;100038.95;108120;1279;60437;-83
2022/06/09 02:01:48;;;;;;;4.10;2.20;;;;;;;13.61;100.00;100042.29;107556;1279;74064;-83
2022/06/09 02:04:22;;;;;;;6.30;3.90;;;;;;;13.60;100.00;100042.90;107902;1277;71134;-83
2022/06/09 02:06:50;;;;;;;6.50;4.10;;;;;;;13.60;100.00;100041.34;107800;1277;73076;-82
2022/06/09 02:09:18;;;;;;;8.20;5.00;;;;;;;13.59;100.00;100039.88;107924;1277;61269;-83
2022/06/09 02:11:48;;;;;;;6.80;4.90;;;;;;;13.59;100.00;100041.14;107864;1279;60444;-83
2022/06/09 02:14:16;;;;;;;9.00;5.70;;;;;;;13.59;100.00;100037.66;107675;1278;76015;-83
2022/06/09 02:16:44;;;;;;;8.50;5.60;;;;;;;13.58;100.00;100038.98;107785;1279;72431;-82
2022/06/09 02:19:11;;;;;;;8.80;6.30;;;;;;;13.58;100.00;100039.92;107792;1277;74139;-82
2022/06/09 02:21:38;;;;;;;7.70;5.40;;;;;;;13.57;100.00;100043.32;107779;1278;62068;-83
2022/06/09 02:24:06;;;;;;;9.60;6.10;;;;;;;13.57;100.00;100046.94;107835;1278;60588;-83
2022/06/09 02:26:33;;;;;;;10.40;6.80;;;;;;;13.58;100.00;100051.10;107850;1279;75249;-83
2022/06/09 02:29:00;;;;;;;8.60;5.80;;;;;;;13.57;100.00;100051.94;107792;1278;72245;-82
2022/06/09 02:31:27;;;;;;;8.00;5.20;;;;;;;13.57;100.00;100053.27;107805;1277;72693;-83
2022/06/09 02:33:54;;;;;;;12.40;6.80;;;;;;;13.56;100.00;100058.38;107848;1279;62515;-83
2022/06/09 02:36:22;;;;;;;10.60;6.70;;;;;;;13.57;100.00;100064.52;107891;1278;60198;-82
2022/06/09 02:38:49;;;;;;;8.70;6.20;;;;;;;13.57;100.00;100064.11;107780;1279;73842;-83
2022/06/09 02:41:16;;;;;;;11.90;7.00;;;;;;;13.57;100.00;100070.66;107896;1277;70706;-83
2022/06/09 02:43:43;;;;;;;12.40;6.60;;;;;;;13.57;100.00;100065.05;107638;1279;73986;-83
2022/06/09 02:46:11;;;;;;;15.30;8.50;;;;;;;13.56;100.00;100065.67;107755;1279;62262;-83
2022/06/09 02:48:40;;;;;;;14.70;8.90;;;;;;;13.57;100.00;100069.52;107693;1278;61757;-82
2022/06/09 02:51:30;;;;;;;11.80;6.70;;;;;;;13.57;100.00;100072.02;107485;1278;74302;-83
2022/06/09 02:54:05;;;;;;;10.90;7.30;;;;;;;13.57;100.00;100072.56;107772;1277;71543;-83
2022/06/09 02:56:32;;;;;;;16.10;9.70;;;;;;;13.56;100.00;100071.95;107585;1278;74632;-83
2022/06/09 02:58:59;;;;;;;16.30;10.50;;;;;;;13.55;100.00;100074.16;107819;1278;62984;-83
2022/06/09 03:01:28;;;;;;;18.00;10.80;;;;;;;13.55;100.00;100077.57;107554;1278;60654;-83
2022/06/09 03:03:56;;;;;;;13.40;8.60;;;;;;;13.55;100.00;100076.76;107667;1279;75014;-83
2022/06/09 03:06:24;;;;;;;18.30;10.60;;;;;;;13.55;100.00;100078.19;107762;1277;70378;-82
2022/06/09 03:08:51;;;;;;;20.30;12.90;;;;;;;13.55;100.00;100082.04;107716;1277;73938;-83
2022/06/09 03:11:18;;;;;;;16.60;11.20;;;;;;;13.54;100.00;100082.98;107884;1277;63587;-83
2022/06/09 03:13:46;;;;;;;25.30;12.90;;;;;;;13.55;100.00;100083.14;107783;1277;62086;-83
2022/06/09 03:16:16;;;;;;;17.50;12.70;;;;;;;13.55;100.00;100089.00;107737;1277;74838;-82
2022/06/09 03:18:44;;;;;;;21.60;12.10;;;;;;;13.55;100.00;100091.67;107836;1278;72799;-83
2022/06/09 03:21:12;;;;;;;20.40;12.00;;;;;;;13.56;100.00;100090.98;107746;1277;72995;-83
2022/06/09 03:23:39;;;;;;;17.20;11.10;;;;;;;13.55;100.00;100088.17;107902;1277;63240;-83
2022/06/09 03:26:07;;;;;;;23.40;13.20;;;;;;;13.56;100.00;100089.34;107494;1277;61594;-83
2022/06/09 03:28:35;;;;;;;19.70;11.00;;;;;;;13.57;100.00;100094.05;107608;1277;74109;-83
2022/06/09 03:31:02;;;;;;;17.70;10.00;;;;;;;13.58;100.00;100101.69;107651;1277;71446;-83
2022/06/09 03:33:31;;;;;;;14.70;9.30;;;;;;;13.60;100.00;100098.90;107736;1277;71684;-84
2022/06/09 03:36:00;;;;;;;18.50;12.20;;;;;;;13.62;100.00;100099.77;107719;1277;63352;-83
2022/06/09 03:38:27;;;;;;;19.20;12.00;;;;;;;13.63;100.00;100100.58;107204;1281;60688;-83
2022/06/09 03:40:54;;;;;;;20.80;12.10;;;;;;;13.65;100.00;100105.48;107731;1277;73858;-83
2022/06/09 03:43:21;;;;;;;21.30;12.60;;;;;;;13.67;100.00;100110.58;107400;1281;71380;-83
2022/06/09 03:45:49;;;;;;;18.80;12.10;;;;;;;13.70;100.00;100108.63;107781;1279;73794;-83
2022/06/09 03:48:16;;;;;;;18.50;10.70;;;;;;;13.72;100.00;100109.95;107510;1279;61883;-83
2022/06/09 03:50:43;;;;;;;17.90;11.00;;;;;;;13.74;100.00;100113.17;107909;1277;61690;-83
2022/06/09 03:53:09;;;;;;;14.20;9.00;;;;;;;13.77;100.00;100113.70;107683;1277;76019;-83
2022/06/09 03:55:36;;;;;;;17.70;10.40;;;;;;;13.79;100.00;100110.37;107510;1277;72919;-83
2022/06/09 03:58:03;;;;;;;16.50;10.60;;;;;;;13.81;100.00;100114.55;107524;1279;74171;-83
2022/06/09 04:00:32;;;;;;;25.40;12.40;;;;;;;13.84;100.00;100112.65;107815;1277;62177;-83
2022/06/09 04:02:59;;;;;;;16.20;11.30;;;;;;;13.88;100.00;100118.49;107824;1279;61330;-83
2022/06/09 04:05:27;;;;;;;15.50;10.10;;;;;;;13.92;100.00;100116.48;107772;1278;74888;-83
2022/06/09 04:07:54;;;;;;;19.10;11.30;;;;;;;13.97;100.00;100122.20;108035;1277;72113;-83
2022/06/09 04:10:26;;;;;;;15.20;8.20;;;;;;;13.99;100.00;100125.77;108091;1277;72203;-84
2022/06/09 04:12:54;;;;;;;12.20;8.30;;;;;;;14.02;100.00;100128.55;108198;1277;62336;-83
2022/06/09 04:15:21;;;;;;;15.00;7.80;;;;;;;14.04;100.00;100124.80;108032;1279;60381;-83
2022/06/09 04:17:48;;;;;;;10.90;6.30;;;;;;;14.10;100.00;100129.58;108110;1279;75578;-84
2022/06/09 04:20:17;;;;;;;11.70;8.80;;;;;;;14.15;100.00;100135.84;108173;1277;71414;-83
2022/06/09 04:22:44;;;;;;;17.20;11.80;;;;;;;14.17;100.00;100139.39;108136;1278;72120;-87
2022/06/09 04:25:16;;;;;;;12.10;8.10;;;;;;;14.22;100.00;100140.77;107763;1281;62061;-87
2022/06/09 04:27:44;;;;;;;14.80;10.00;;;;;;;14.25;100.00;100143.63;108117;1277;61402;-87
2022/06/09 04:30:12;;;;;;;18.10;9.60;;;;;;;14.29;100.00;100148.77;107573;1281;74925;-86
2022/06/09 04:32:39;;;;;;;14.80;8.90;;;;;;;14.34;100.00;100147.77;107903;1277;71398;-86
2022/06/09 04:35:07;;;;;;;21.00;12.40;;;;;;;14.40;100.00;100147.49;107899;1277;73756;-86
2022/06/09 04:40:21;;;;;;;10.70;7.60;;;;;;;14.57;100.00;100144.83;107828;1277;59774;-86
2022/06/09 04:42:48;;;;;;;12.30;7.10;;;;;;;14.69;100.00;100149.13;107593;1279;76056;-85
2022/06/09 04:45:16;;;;;;;19.30;10.00;;;;;;;14.81;100.00;100150.88;107558;1278;72386;-85
2022/06/09 04:47:42;;;;;;;12.60;9.20;;;;;;;14.89;100.00;100152.39;107742;1279;73065;-85
2022/06/09 04:50:11;;;;;;;12.80;8.20;;;;;;;15.00;100.00;100156.41;106996;1279;62123;-85
2022/06/09 04:52:39;;;;;;;13.90;9.20;;;;;;;15.10;99.59;100161.20;107710;1278;60594;-85
2022/06/09 04:55:06;;;;;;;16.80;7.90;;;;;;;15.21;99.02;100159.82;107572;1279;76024;-85
2022/06/09 04:57:33;;;;;;;13.20;8.10;;;;;;;15.28;98.01;100159.11;107901;1277;73067;-85
2022/06/09 05:00:01;;;;;;;17.50;10.90;;;;;;;15.32;97.61;100164.09;107579;1279;72962;-85
2022/06/09 05:02:28;;;;;;;11.00;8.50;;;;;;;15.37;97.06;100163.02;107575;1279;63266;-85
2022/06/09 05:04:55;;;;;;;14.60;8.40;;;;;;;15.45;97.07;100163.89;107831;1278;60634;-85
2022/06/09 05:07:23;;;;;;;14.00;8.50;;;;;;;15.49;96.77;100171.10;107899;1277;76339;-85
2022/06/09 05:09:50;;;;;;;11.70;8.90;;;;;;;15.51;96.33;100172.27;107836;1278;72723;-86
2022/06/09 05:12:17;;;;;;;12.20;8.80;;;;;;;15.54;95.50;100177.09;107728;1277;59286;-85
2022/06/09 05:14:43;;;;;;;32.40;11.80;;;;;;;15.52;94.79;100179.27;107850;1279;63889;-85
2022/06/09 05:17:11;;;;;;;15.70;9.70;;;;;;;15.50;94.83;100183.21;107993;1277;60471;-85
2022/06/09 05:19:38;;;;;;;11.50;8.30;;;;;;;15.50;94.83;100188.77;107799;1279;74909;-85
2022/06/09 05:22:05;;;;;;;12.00;8.40;;;;;;;15.45;95.07;100190.02;107683;1279;71626;-86
2022/06/09 05:24:32;;;;;;;12.80;8.40;;;;;;;15.43;95.27;100198.54;107853;1278;71679;-85
2022/06/09 05:26:58;;;;;;;14.30;8.90;;;;;;;15.41;94.99;100201.17;107240;1278;62239;-86
2022/06/09 05:29:26;;;;;;;13.70;8.60;;;;;;;15.37;94.95;100204.47;107771;1279;62063;-86
2022/06/09 05:31:54;;;;;;;13.90;9.40;;;;;;;15.31;95.43;100205.96;107654;1279;74681;-86
2022/06/09 05:34:22;;;;;;;16.20;11.00;;;;;;;15.25;95.98;100209.25;107646;1278;71154;-86
2022/06/09 05:36:49;;;;;;;17.50;11.80;;;;;;;15.20;96.06;100211.14;107600;1279;73073;-86
2022/06/09 05:45:00;;;;;;;18.00;11.30;;;;;;;15.13;96.06;100223.48;107483;1277;76620;-85
2022/06/09 05:47:27;;;;;;;18.70;11.30;;;;;;;15.12;96.05;100231.52;107553;1277;73058;-86
2022/06/09 05:49:55;;;;;;;19.90;11.80;;;;;;;15.11;95.81;100232.17;107572;1277;73031;-85
2022/06/09 05:52:25;;;;;;;13.20;9.30;;;;;;;15.11;95.79;100235.04;107711;1279;63081;-86
2022/06/09 05:54:53;;;;;;;25.90;14.10;;;;;;;15.12;95.96;100237.34;107543;1279;60604;-86
2022/06/09 05:57:21;;;;;;;18.50;10.40;;;;;;;15.14;95.77;100244.31;107563;1279;75016;-85
2022/06/09 05:59:49;;;;;;;23.50;14.50;;;;;;;15.18;95.65;100242.89;107674;1278;71438;-86
2022/06/09 06:02:17;;;;;;;24.60;16.00;;;;;;;15.21;95.44;100247.31;107378;1279;74788;-85
2022/06/09 06:04:45;;;;;;;34.70;18.80;;;;;;;15.27;95.68;100253.92;107860;1278;62134;-86
2022/06/09 06:07:13;;;;;;;18.30;10.30;;;;;;;15.32;95.59;100255.37;107657;1279;60316;-86
2022/06/09 06:09:40;;;;;;;14.30;10.10;;;;;;;15.36;95.05;100264.25;107546;1277;75154;-86
2022/06/09 06:12:08;;;;;;;22.00;13.50;;;;;;;15.36;94.04;100265.29;107492;1278;72705;-85
2022/06/09 06:14:35;;;;;;;16.10;11.70;;;;;;;15.39;94.32;100269.70;107760;1278;74084;-86
2022/06/09 06:17:02;;;;;;;28.90;19.10;;;;;;;15.42;94.09;100265.91;107518;1279;62312;-85
2022/06/09 06:19:29;;;;;;;25.10;15.00;;;;;;;15.46;93.89;100265.33;107315;1277;61705;-86
2022/06/09 06:21:56;;;;;;;16.50;11.60;;;;;;;15.50;93.81;100266.98;107727;1277;73759;-86
2022/06/09 06:24:24;;;;;;;16.60;11.90;;;;;;;15.54;93.96;100271.58;107722;1279;70448;-85
2022/06/09 06:26:52;;;;;;;14.80;10.10;;;;;;;15.53;93.52;100278.44;107526;1277;73969;-85
2022/06/09 06:29:22;;;;;;;24.20;13.50;;;;;;;15.50;93.50;100285.52;107670;1277;62363;-85
2022/06/09 06:31:49;;;;;;;19.70;12.10;;;;;;;15.49;93.59;100288.39;107657;1278;60316;-86
2022/06/09 06:34:17;;;;;;;18.20;10.80;;;;;;;15.46;93.11;100290.00;107470;1277;76145;-85
2022/06/09 06:36:45;;;;;;;23.00;14.10;;;;;;;15.47;93.31;100295.84;107893;1277;72527;-86
2022/06/09 06:39:12;;;;;;;14.50;9.90;;;;;;;15.47;93.03;100297.04;107352;1279;73102;-85
2022/06/09 06:41:39;;;;;;;14.60;9.20;;;;;;;15.48;92.57;100303.06;107334;1277;62208;-85
2022/06/09 06:44:07;;;;;;;19.60;11.70;;;;;;;15.51;92.07;100307.00;107625;1279;60725;-85
2022/06/09 06:46:35;;;;;;;16.50;10.30;;;;;;;15.54;91.58;100306.66;107311;1279;74708;-86
2022/06/09 06:49:02;;;;;;;17.70;10.50;;;;;;;15.55;91.29;100308.58;107911;1277;71384;-85
2022/06/09 06:51:29;;;;;;;16.00;9.50;;;;;;;15.55;89.52;100319.65;107828;1277;73280;-86
2022/06/09 06:53:56;;;;;;;16.60;10.20;;;;;;;15.57;89.08;100322.55;107599;1279;62819;-86
2022/06/09 06:56:23;;;;;;;11.60;6.10;;;;;;;15.60;89.14;100326.18;107777;1279;60417;-86
2022/06/09 06:58:50;;;;;;;11.70;6.50;;;;;;;15.61;88.72;100325.90;107548;1279;74954;-85
2022/06/09 07:01:17;;;;;;;10.30;7.60;;;;;;;15.63;88.56;100330.40;107729;1277;73240;-85
2022/06/09 07:03:45;;;;;;;10.90;7.20;;;;;;;15.66;87.33;100336.33;107790;1277;74713;-86
2022/06/09 07:06:13;;;;;;;12.20;7.70;;;;;;;15.67;87.14;100337.94;107610;1277;61225;-86
2022/06/09 07:08:40;;;;;;;12.00;6.40;;;;;;;15.72;87.71;100339.52;107633;1279;61800;-85
2022/06/09 07:11:08;;;;;;;15.20;7.10;;;;;;;15.78;87.69;100347.69;107552;1277;76171;-89
2022/06/09 07:13:36;;;;;;;12.30;7.40;;;;;;;15.79;86.86;100349.48;107577;1277;71915;-86
2022/06/09 07:16:07;;;;;;;7.90;5.10;;;;;;;15.81;86.06;100352.23;107534;1278;73014;-86
2022/06/09 07:18:54;;;;;;;11.60;6.50;;;;;;;15.85;86.23;100358.61;107735;1279;64037;-87
2022/06/09 07:21:21;;;;;;;8.30;5.40;;;;;;;15.89;85.78;100362.45;107749;1277;60445;-87
2022/06/09 07:23:48;;;;;;;13.30;7.40;;;;;;;15.97;85.41;100364.81;107784;1277;75866;-87
2022/06/09 07:26:16;;;;;;;9.20;5.30;;;;;;;16.08;84.35;100368.09;107694;1279;71478;-86
2022/06/09 07:28:43;;;;;;;10.90;6.70;;;;;;;16.18;84.12;100372.61;107576;1281;73109;-86
2022/06/09 07:31:10;;;;;;;11.90;5.50;;;;;;;16.31;83.56;100374.48;107639;1278;63237;-86
2022/06/09 07:33:38;;;;;;;5.00;4.20;;;;;;;16.44;82.57;100371.01;107698;1279;60627;-87
2022/06/09 07:36:10;;;;;;;14.30;8.10;;;;;;;16.51;80.90;100376.29;107445;1278;74886;-87
2022/06/09 07:38:37;;;;;;;11.60;5.80;;;;;;;16.56;80.16;100375.79;107672;1277;72125;-87
2022/06/09 07:41:09;;;;;;;10.00;5.90;;;;;;;16.54;80.28;100379.35;107555;1278;74586;-87
2022/06/09 07:43:55;;;;;;;9.30;5.40;;;;;;;16.58;80.55;100382.28;107573;1278;61076;-87
2022/06/09 07:46:22;;;;;;;9.50;6.30;;;;;;;16.59;80.72;100387.20;107373;1279;59326;-87
2022/06/09 07:48:51;;;;;;;8.20;4.90;;;;;;;16.59;80.78;100387.46;107720;1279;76332;-87
2022/06/09 07:51:19;;;;;;;14.80;9.40;;;;;;;16.56;79.99;100391.28;107671;1278;70009;-87
2022/06/09 07:53:46;;;;;;;10.80;7.40;;;;;;;16.54;80.46;100385.98;107535;1279;72917;-88
2022/06/09 07:56:13;;;;;;;9.10;5.90;;;;;;;16.63;80.37;100392.15;107695;1279;63036;-87
2022/06/09 07:58:41;;;;;;;12.60;4.60;;;;;;;16.76;80.24;100391.08;107794;1279;60203;-86
2022/06/09 08:01:08;;;;;;;16.80;10.80;;;;;;;16.89;78.99;100393.52;107663;1279;75004;-87
2022/06/09 08:03:35;;;;;;;11.40;7.00;;;;;;;17.08;78.48;100393.20;107625;1279;72487;-87
2022/06/09 08:06:05;;;;;;;7.90;4.80;;;;;;;17.23;77.67;100395.65;107875;1277;74853;-86
2022/06/09 08:08:52;;;;;;;11.20;6.60;;;;;;;17.47;77.71;100390.94;107810;1277;63254;-87
2022/06/09 08:11:19;;;;;;;20.20;10.70;;;;;;;17.62;75.83;100398.08;107563;1279;60445;-86
2022/06/09 08:13:46;;;;;;;5.50;3.90;;;;;;;17.60;74.58;100400.76;107626;1278;76302;-86
2022/06/09 08:16:14;;;;;;;12.30;7.80;;;;;;;17.60;74.84;100399.27;107980;1279;71322;-87
2022/06/09 08:18:42;;;;;;;10.40;6.20;;;;;;;17.85;74.99;100402.59;108009;1278;72959;-86
2022/06/09 08:21:09;;;;;;;8.50;5.50;;;;;;;18.06;73.14;100410.41;107546;1279;62307;-87
2022/06/09 08:23:53;;;;;;;6.60;4.40;;;;;;;18.22;72.70;100408.98;107396;1279;59708;-87
2022/06/09 08:26:20;;;;;;;10.40;5.30;;;;;;;18.18;72.60;100418.39;107294;1279;75001;-87
2022/06/09 08:28:48;;;;;;;11.30;7.00;;;;;;;18.10;71.88;100415.50;107591;1279;72003;-87
2022/06/09 08:31:15;;;;;;;8.10;5.00;;;;;;;18.02;71.82;100421.00;107388;1279;74282;-86
2022/06/09 08:33:42;;;;;;;10.50;6.80;;;;;;;17.95;72.65;100421.26;107635;1278;62176;-87
2022/06/09 08:36:10;;;;;;;7.20;4.20;;;;;;;17.91;72.69;100425.41;107908;1277;59189;-86
2022/06/09 08:38:37;;;;;;;7.60;4.70;;;;;;;17.85;72.71;100432.07;107421;1279;76054;-86
2022/06/09 08:41:27;;;;;;;12.00;6.20;;;;;;;17.88;72.99;100433.71;107386;1279;70313;-87
2022/06/09 08:44:09;;;;;;;5.70;3.70;;;;;;;17.87;72.43;100437.28;107833;1279;71667;-87
2022/06/09 08:46:42;;;;;;;9.50;4.70;;;;;;;17.91;72.60;100437.55;107220;1279;899569;-87
2022/06/09 08:49:24;;;;;;;8.50;5.70;;;;;;;17.98;72.04;100441.26;107513;1280;61175;-87
2022/06/09 08:51:52;;;;;;;8.80;5.00;;;;;;;18.06;71.90;100444.77;107738;1277;76145;-86
2022/06/09 08:54:28;;;;;;;10.50;4.00;;;;;;;18.16;71.65;100451.21;107883;1278;72617;-87
2022/06/09 08:57:01;;;;;;;10.20;5.60;;;;;;;18.22;71.12;100454.74;107542;1279;73058;-87
2022/06/09 08:59:37;;;;;;;5.70;4.60;;;;;;;18.30;71.00;100453.10;107548;1279;62257;-87
2022/06/09 09:02:33;;;;;;;13.90;8.40;;;;;;;18.34;71.04;100455.50;107501;1279;61111;-87
2022/06/09 09:05:29;;;;;;;8.40;4.70;;;;;;;18.40;70.43;100446.82;107869;1279;75430;-86
2022/06/09 09:08:06;;;;;;;8.10;4.50;;;;;;;18.46;70.31;100457.83;107856;1277;71012;-86
2022/06/09 09:10:46;;;;;;;11.30;4.90;;;;;;;18.48;70.21;100458.20;107952;1277;71857;-87
2022/06/09 09:13:26;;;;;;;6.20;4.10;;;;;;;18.56;70.24;100455.80;107572;1279;62312;-85
2022/06/09 09:15:56;;;;;;;7.40;5.00;;;;;;;18.58;70.37;100462.50;107706;1278;61985;-87
2022/06/09 09:18:37;;;;;;;7.90;2.80;;;;;;;18.63;70.14;100464.89;107376;1279;74969;-87
2022/06/09 09:21:16;;;;;;;8.20;4.70;;;;;;;18.68;70.38;100471.16;107815;1279;71107;-86
2022/06/09 09:23:58;;;;;;;9.20;3.50;;;;;;;18.57;69.90;100471.84;107607;1279;74010;-87
2022/06/09 09:26:45;;;;;;;7.20;5.20;;;;;;;18.48;71.07;100475.19;108385;1279;62948;-87
2022/06/09 09:29:20;;;;;;;5.90;4.20;;;;;;;18.53;70.77;100480.40;108015;1279;60329;-87
2022/06/09 09:31:53;;;;;;;5.70;3.50;;;;;;;18.66;69.93;100482.45;107811;1279;75116;-87
2022/06/09 09:34:42;;;;;;;5.10;3.20;;;;;;;18.80;69.82;100488.75;107634;1279;71392;-87
2022/06/09 09:37:32;;;;;;;9.30;3.50;;;;;;;18.94;69.41;100485.81;107664;1278;72727;-87
2022/06/09 09:40:13;;;;;;;7.90;4.00;;;;;;;19.08;67.81;100493.48;107680;1279;63141;-86
2022/06/09 09:42:42;;;;;;;5.50;3.40;;;;;;;19.17;67.22;100490.39;107435;1279;60117;-86
2022/06/09 09:45:09;;;;;;;13.20;5.30;;;;;;;19.31;67.19;100488.58;107921;1278;74646;-86
2022/06/09 09:48:00;;;;;;;12.50;6.40;;;;;;;19.43;67.24;100483.81;107616;1279;72699;-86
2022/06/09 09:50:37;;;;;;;14.20;8.90;;;;;;;19.46;66.34;100485.91;107734;1278;73026;-87
2022/06/09 09:53:38;;;;;;;6.80;3.70;;;;;;;19.42;67.01;100494.19;107837;1277;61916;-86
2022/06/09 09:56:17;;;;;;;12.60;4.60;;;;;;;19.33;67.16;100497.23;107613;1278;62126;-86
2022/06/09 09:58:46;;;;;;;8.30;3.80;;;;;;;19.36;66.50;100497.02;107932;1279;74900;-86
2022/06/09 10:01:17;;;;;;;6.40;3.90;;;;;;;19.52;67.36;100491.38;107528;1279;71561;-87
2022/06/09 10:09:51;;;;;;;7.30;4.40;;;;;;;19.68;64.88;100501.52;107802;1278;60665;-87
2022/06/09 10:12:35;;;;;;;8.10;3.30;;;;;;;19.81;64.35;100497.36;107601;1277;73427;-87
2022/06/09 10:15:21;;;;;;;;;;;;;;;20.01;63.87;100497.13;107722;1279;71442;-88
2022/06/09 10:17:51;;;;;;;5.90;2.90;;;;;;;19.94;63.01;100509.79;107822;1278;72976;-88
2022/06/09 10:20:41;;;;;;;7.00;2.60;;;;;;;20.02;62.57;100504.84;107847;1277;59426;-87
2022/06/09 10:23:16;;;;;;;3.60;2.00;;;;;;;20.36;63.92;100500.80;107783;1279;61363;-88
2022/06/09 10:26:13;;;;;;;7.10;2.60;;;;;;;20.70;60.67;100516.61;107660;1279;75403;-87
2022/06/09 10:28:46;;;;;;;4.60;2.40;;;;;;;20.82;58.96;100515.57;107206;1279;71483;-87
2022/06/09 10:31:50;;;;;;;5.70;2.50;;;;;;;20.86;58.75;100510.28;107436;1279;72228;-88
2022/06/09 10:34:43;;;;;;;3.70;2.70;;;;;;;20.83;58.84;100512.27;107711;1279;61291;-87
2022/06/09 10:37:30;;;;;;;5.70;2.40;;;;;;;20.74;59.39;100512.59;107696;1279;60544;-87
2022/06/09 10:40:03;;;;;;;4.10;2.10;;;;;;;20.65;59.58;100520.05;107192;1278;75257;-88
2022/06/09 10:42:33;;;;;;;7.40;2.70;;;;;;;20.53;59.54;100524.36;107763;1279;71335;-88
2022/06/09 10:45:03;;;;;;;5.50;2.50;;;;;;;20.44;60.14;100519.58;107596;1279;74127;-87
2022/06/09 10:56:30;;;;;;;3.30;1.80;;;;;;;21.08;57.09;100533.63;107658;1279;73274;-87
2022/06/09 10:59:08;;;;;;;4.20;2.80;;;;;;;21.23;55.87;100535.92;107639;1279;74331;-88
2022/06/09 11:01:35;;;;;;;5.10;2.30;;;;;;;21.29;56.34;100541.66;107692;1278;60594;-87
2022/06/09 11:04:06;;;;;;;3.50;2.00;;;;;;;21.36;56.06;100533.23;107574;1280;61630;-88
2022/06/09 11:06:46;;;;;;;5.10;2.60;;;;;;;21.37;56.30;100530.81;107295;1279;75223;-87
2022/06/09 11:09:33;;;;;;;3.40;1.70;;;;;;;21.37;55.85;100542.73;107654;1279;72382;-88
2022/06/09 11:12:25;;;;;;;5.30;3.30;;;;;;;21.30;56.60;100536.23;107613;1278;72732;-87
2022/06/09 11:15:02;;;;;;;7.30;3.70;;;;;;;21.30;57.47;100542.38;107467;1279;60648;-87
2022/06/09 11:18:06;;;;;;;4.00;1.70;;;;;;;21.30;58.06;100547.13;107432;1278;60889;-88
2022/06/09 11:21:05;;;;;;;5.10;2.40;;;;;;;20.99;57.66;100564.66;107948;1279;74380;-88
2022/06/09 11:23:54;;;;;;;6.40;2.60;;;;;;;20.41;59.49;100567.59;107703;1279;71785;-88
2022/06/09 11:26:28;;;;;;;5.30;2.40;;;;;;;20.05;60.89;100567.13;107886;1277;73024;-88
2022/06/09 11:29:03;;;;;;;3.90;1.50;;;;;;;19.91;62.21;100565.94;107770;1278;61752;-87
2022/06/09 11:31:48;;;;;;;3.20;1.70;;;;;;;19.89;62.11;100567.84;107771;1277;61378;-87
2022/06/09 11:34:28;;;;;;;3.00;1.80;;;;;;;19.94;62.48;100567.94;107431;1279;75107;-87
2022/06/09 11:37:15;;;;;;;3.70;2.30;;;;;;;20.10;62.11;100568.14;107601;1279;71357;-87
2022/06/09 11:39:48;;;;;;;7.40;2.90;;;;;;;20.24;61.63;100567.67;107633;1279;73796;-87
2022/06/09 11:42:48;;;;;;;8.40;5.60;;;;;;;20.44;61.34;100569.48;107753;1279;59438;-87
2022/06/09 11:45:51;;;;;;;6.60;2.90;;;;;;;20.73;60.39;100567.45;107800;1277;62239;-88
2022/06/09 11:48:39;;;;;;;4.10;3.20;;;;;;;21.01;59.65;100567.27;107419;1287;75158;-87
2022/06/09 11:51:07;;;;;;;6.30;2.90;;;;;;;21.13;57.40;100569.27;108073;1279;71644;-87
2022/06/09 11:53:44;;;;;;;5.90;2.70;;;;;;;21.07;57.67;100573.30;108065;1279;72939;-87
2022/06/09 11:56:40;;;;;;;3.40;1.90;;;;;;;21.02;56.59;100577.59;107334;1279;60793;-88